Disautel, Washington
Current Conditions -  °F | °C
As of 7:11 AM on Friday 19 Dec 2014 (Local Time) from KOMK Reporting Station
Light Rain Light Rain  
Wind Chill: -2°   Ceiling: 900
Heat Index:   Visibility: 2.5mi
Dew Point:   Wind: 5mph
Humidity: 96%   Direction: 220°SW
Pressure: 29.86"   Gusts: NA
Location:  48.4274°N, 119.524°W
Report Text: KOMK 191511Z AUTO 22004KT 2 1/2SM -RA BR OVC009 01/00 A2986 RMK AO2 UPB1459E01RAB01 P0001 T00060000
Loading
Personal Weather Stations






























Interactive Weather Map New forecast layout! Learn more

10-Day Weather Forecast

Advertisements
Track Severe Weather on mobile